TimeAKDT,TemperatureF,Dew PointF,Humidity,Sea Level PressureIn,VisibilityMPH,Wind Direction,Wind SpeedMPH,Gust SpeedMPH,PrecipitationIn,Events,Conditions,WindDirDegrees,DateUTC
12:53 AM,30.0,27.0,88,30.34,10.0,ENE,9.2,-,N/A,,Mostly Cloudy,70,2014-05-03 08:53:00
1:53 AM,28.9,26.1,89,30.32,10.0,ENE,9.2,-,N/A,,Mostly Cloudy,70,2014-05-03 09:53:00
2:53 AM,28.9,26.1,89,30.30,10.0,ENE,10.4,-,N/A,,Mostly Cloudy,60,2014-05-03 10:53:00
3:53 AM,28.0,25.0,88,30.28,10.0,ENE,12.7,-,N/A,,Mostly Cloudy,70,2014-05-03 11:53:00
4:53 AM,26.1,24.1,92,30.25,10.0,ENE,10.4,-,N/A,,Scattered Clouds,70,2014-05-03 12:53:00
5:53 AM,27.0,25.0,92,30.23,10.0,NE,11.5,-,N/A,,Scattered Clouds,50,2014-05-03 13:53:00
6:53 AM,25.0,23.0,92,30.21,10.0,ENE,11.5,-,N/A,,Scattered Clouds,70,2014-05-03 14:53:00
7:53 AM,26.1,24.1,92,30.20,10.0,East,10.4,-,N/A,,Scattered Clouds,80,2014-05-03 15:53:00
8:53 AM,27.0,25.0,92,30.17,10.0,ENE,13.8,-,N/A,,Clear,70,2014-05-03 16:53:00
9:53 AM,28.0,26.1,92,30.14,10.0,East,16.1,-,N/A,,Scattered Clouds,80,2014-05-03 17:53:00
10:53 AM,28.9,26.1,89,30.12,10.0,East,18.4,-,N/A,,Scattered Clouds,100,2014-05-03 18:53:00
11:30 AM,30.0,27.0,88,30.11,10.0,East,17.3,-,N/A,,Scattered Clouds,100,2014-05-03 19:30:00
11:53 AM,30.0,28.0,92,30.11,10.0,East,15.0,-,N/A,,Scattered Clouds,100,2014-05-03 19:53:00
12:53 PM,30.9,28.9,92,30.09,10.0,East,17.3,-,N/A,,Scattered Clouds,100,2014-05-03 20:53:00
1:53 PM,32.0,28.9,88,30.06,10.0,East,17.3,-,N/A,,Scattered Clouds,100,2014-05-03 21:53:00
2:53 PM,32.0,30.0,92,30.04,10.0,East,16.1,-,N/A,,Mostly Cloudy,100,2014-05-03 22:53:00
3:19 PM,30.9,28.9,92,30.03,1.5,ESE,16.1,-,N/A,,Overcast,110,2014-05-03 23:19:00
3:28 PM,30.9,28.9,92,30.03,0.5,ESE,13.8,-,N/A,Fog,Light Freezing Fog,110,2014-05-03 23:28:00
3:53 PM,30.9,30.0,96,30.02,0.5,ESE,13.8,-,N/A,Fog,Light Freezing Fog,110,2014-05-03 23:53:00
4:11 PM,30.9,30.0,96,30.00,0.2,East,13.8,-,N/A,Fog,Light Freezing Fog,100,2014-05-04 00:11:00
4:28 PM,30.9,30.0,96,30.00,0.2,ESE,13.8,-,N/A,Fog,Light Freezing Fog,110,2014-05-04 00:28:00
4:53 PM,30.9,30.0,96,29.99,0.2,East,13.8,-,N/A,Fog,Light Freezing Fog,100,2014-05-04 00:53:00
5:53 PM,30.9,30.0,96,29.96,0.2,East,12.7,-,N/A,Fog,Light Freezing Fog,90,2014-05-04 01:53:00
6:37 PM,30.9,30.0,96,29.95,0.5,ESE,9.2,-,N/A,Fog,Light Freezing Fog,110,2014-05-04 02:37:00
6:44 PM,30.9,30.9,100,29.95,0.2,East,10.4,-,N/A,Fog,Light Freezing Fog,100,2014-05-04 02:44:00
6:53 PM,30.9,30.0,96,29.94,0.2,East,9.2,-,N/A,Fog,Light Freezing Fog,90,2014-05-04 02:53:00
7:03 PM,30.9,30.9,100,29.93,0.2,East,10.4,-,N/A,Fog,Light Freezing Fog,90,2014-05-04 03:03:00
7:53 PM,30.9,30.0,96,29.92,0.2,East,12.7,-,N/A,Fog,Light Freezing Fog,90,2014-05-04 03:53:00
8:53 PM,30.0,28.9,96,29.91,0.2,East,9.2,-,N/A,Fog,Light Freezing Fog,100,2014-05-04 04:53:00
9:53 PM,30.0,28.9,96,29.89,0.2,East,8.1,-,N/A,Fog,Light Freezing Fog,100,2014-05-04 05:53:00
10:53 PM,28.9,28.0,96,29.87,0.2,ESE,10.4,-,N/A,Fog,Light Freezing Fog,110,2014-05-04 06:53:00
11:45 PM,28.9,28.0,96,29.86,0.2,ESE,8.1,-,N/A,Fog,Light Freezing Fog,110,2014-05-04 07:45:00
11:53 PM,28.9,28.0,96,29.86,0.2,ESE,6.9,-,N/A,Fog,Light Freezing Fog,110,2014-05-04 07:53:00